createdAt,value
2023-01-29T00:04:32.654Z,80.21
2023-01-29T00:09:36.270Z,80.29
2023-01-29T00:14:41.812Z,80.29
2023-01-29T00:19:45.013Z,80.39
2023-01-29T00:24:48.122Z,80.42
2023-01-29T00:30:09.451Z,80.56
2023-01-29T00:35:12.680Z,80.53
2023-01-29T00:40:16.793Z,80.58
2023-01-29T00:45:20.233Z,80.57
2023-01-29T00:50:23.416Z,80.49
2023-01-29T00:55:26.725Z,80.58
2023-01-29T01:00:29.879Z,80.57
2023-01-29T01:05:33.249Z,80.54
2023-01-29T01:10:36.352Z,80.53
2023-01-29T01:15:41.012Z,80.65
2023-01-29T01:20:44.124Z,80.57
2023-01-29T01:25:47.312Z,80.58
2023-01-29T01:30:50.499Z,80.66
2023-01-29T01:35:53.734Z,80.88
2023-01-29T01:40:56.837Z,81.17
2023-01-29T01:46:00.153Z,81.70
2023-01-29T01:51:06.734Z,82.03
2023-01-29T01:56:15.876Z,82.48
2023-01-29T02:01:27.109Z,83.05
2023-01-29T02:06:51.275Z,83.39
2023-01-29T02:11:54.380Z,83.61
2023-01-29T02:17:00.329Z,83.89
2023-01-29T02:22:38.711Z,84.21
2023-01-29T02:28:25.210Z,84.48
2023-01-29T02:33:41.331Z,84.44
2023-01-29T02:39:15.357Z,84.63
2023-01-29T02:45:16.525Z,84.90
2023-01-29T02:50:42.767Z,85.17
2023-01-29T02:56:15.780Z,85.86
2023-01-29T03:01:38.336Z,85.94
2023-01-29T03:06:51.392Z,85.86
2023-01-29T03:12:19.991Z,86.00
2023-01-29T03:17:33.536Z,86.45
2023-01-29T03:22:39.932Z,86.60
2023-01-29T03:28:23.580Z,86.66
2023-01-29T03:33:32.843Z,86.86
2023-01-29T03:38:36.457Z,86.92
2023-01-29T03:43:55.423Z,86.89
2023-01-29T03:49:01.609Z,86.93
2023-01-29T03:54:29.490Z,87.00
2023-01-29T04:00:26.657Z,87.15
2023-01-29T04:05:44.112Z,87.06
2023-01-29T04:10:52.236Z,87.03
2023-01-29T04:16:02.074Z,87.02
2023-01-29T04:21:07.507Z,87.18
2023-01-29T04:26:28.594Z,87.43
2023-01-29T04:31:45.322Z,87.78
2023-01-29T04:37:16.984Z,87.87
2023-01-29T04:42:31.373Z,87.92
2023-01-29T04:48:17.567Z,87.91
2023-01-29T04:53:59.400Z,87.91
2023-01-29T04:59:09.516Z,88.05
2023-01-29T05:04:18.561Z,88.06
2023-01-29T05:09:22.935Z,88.22
2023-01-29T05:14:30.624Z,88.18
2023-01-29T05:19:33.883Z,88.17
2023-01-29T05:24:37.893Z,88.06
2023-01-29T05:29:46.962Z,88.04
2023-01-29T05:34:50.054Z,88.07
2023-01-29T05:39:53.146Z,88.15
2023-01-29T05:44:56.283Z,88.14
2023-01-29T05:49:59.561Z,88.06
2023-01-29T05:55:02.701Z,88.05
2023-01-29T06:00:07.601Z,88.18
2023-01-29T06:05:10.924Z,88.25
2023-01-29T06:10:18.060Z,88.26
2023-01-29T06:15:21.646Z,88.25
2023-01-29T06:20:25.670Z,88.12
2023-01-29T06:25:28.883Z,88.06
2023-01-29T06:30:32.057Z,88.15
2023-01-29T06:35:35.297Z,88.18
2023-01-29T06:40:39.433Z,88.12
2023-01-29T06:45:52.150Z,88.04
2023-01-29T06:50:55.571Z,87.97
2023-01-29T06:55:58.787Z,87.86
2023-01-29T07:01:15.505Z,87.70
2023-01-29T07:06:30.098Z,87.67
2023-01-29T07:11:37.905Z,87.72
2023-01-29T07:16:41.135Z,87.69
2023-01-29T07:21:44.420Z,87.58
2023-01-29T07:26:47.833Z,87.62
2023-01-29T07:31:51.043Z,87.79
2023-01-29T07:36:54.766Z,87.83
2023-01-29T07:41:58.585Z,87.64
2023-01-29T07:47:01.698Z,87.54
2023-01-29T07:52:05.205Z,87.40
2023-01-29T07:57:08.517Z,87.25
2023-01-29T08:02:12.782Z,87.08
2023-01-29T08:07:16.011Z,87.01
2023-01-29T08:12:19.166Z,86.83
2023-01-29T08:17:22.598Z,86.71
2023-01-29T08:22:25.797Z,86.63
2023-01-29T08:27:29.025Z,86.63
2023-01-29T08:32:32.531Z,86.56
2023-01-29T08:37:35.835Z,86.47
2023-01-29T08:42:39.136Z,86.32
2023-01-29T08:47:47.734Z,86.30
2023-01-29T08:52:50.801Z,86.28
2023-01-29T08:57:54.813Z,86.32
2023-01-29T09:02:59.871Z,86.21
2023-01-29T09:08:03.691Z,86.20
2023-01-29T09:13:06.903Z,85.91
2023-01-29T09:18:10.043Z,85.87
2023-01-29T09:23:13.416Z,86.01
2023-01-29T09:28:18.017Z,86.49
2023-01-29T09:33:21.888Z,86.72
2023-01-29T09:38:24.987Z,86.97
2023-01-29T09:44:01.687Z,86.94
2023-01-29T09:49:27.182Z,87.01
2023-01-29T09:54:43.007Z,87.05
2023-01-29T09:59:46.127Z,87.06
2023-01-29T10:04:58.333Z,86.93
2023-01-29T10:10:45.290Z,86.76
2023-01-29T10:16:23.507Z,86.75
2023-01-29T10:21:38.910Z,86.75
2023-01-29T10:26:42.175Z,86.79
2023-01-29T10:31:52.402Z,86.89
2023-01-29T10:36:57.367Z,87.06
2023-01-29T10:42:49.272Z,87.11
2023-01-29T10:48:23.824Z,87.11
2023-01-29T10:54:44.341Z,87.05
2023-01-29T11:00:07.623Z,86.93
2023-01-29T11:05:36.633Z,86.89
2023-01-29T11:10:49.576Z,87.14
2023-01-29T11:15:54.035Z,87.28
2023-01-29T11:21:04.782Z,87.13
2023-01-29T11:26:14.308Z,86.96
2023-01-29T11:31:29.223Z,87.07
2023-01-29T11:36:35.334Z,87.01
2023-01-29T11:42:04.211Z,86.79
2023-01-29T11:47:16.254Z,86.83
2023-01-29T11:52:25.149Z,86.72
2023-01-29T11:57:39.169Z,86.63
2023-01-29T12:03:06.820Z,86.64
2023-01-29T12:08:19.155Z,86.82
2023-01-29T12:13:28.688Z,86.83
2023-01-29T12:18:59.359Z,86.85
2023-01-29T12:24:27.960Z,86.86
2023-01-29T12:30:19.951Z,86.93
2023-01-29T12:35:32.231Z,86.93
2023-01-29T12:40:47.259Z,86.98
2023-01-29T12:45:55.656Z,86.93
2023-01-29T12:51:09.818Z,86.86
2023-01-29T12:56:27.060Z,86.92
2023-01-29T13:01:39.475Z,87.11
2023-01-29T13:06:51.598Z,87.24
2023-01-29T13:12:04.106Z,87.21
2023-01-29T13:17:24.333Z,87.17
2023-01-29T13:22:35.354Z,87.19
2023-01-29T13:27:39.704Z,87.15
2023-01-29T13:32:50.750Z,87.08
2023-01-29T13:37:55.703Z,87.13
2023-01-29T13:43:00.427Z,87.39
2023-01-29T13:48:38.260Z,87.57
2023-01-29T13:53:43.420Z,87.61
2023-01-29T13:58:46.429Z,87.79
2023-01-29T14:04:08.098Z,88.07
2023-01-29T14:09:53.885Z,88.35
2023-01-29T14:14:57.021Z,88.25
2023-01-29T14:20:20.028Z,88.27
2023-01-29T14:25:32.104Z,88.54
2023-01-29T14:30:36.621Z,88.95
2023-01-29T14:35:50.574Z,89.11
2023-01-29T14:41:25.411Z,89.24
2023-01-29T14:46:34.466Z,89.19
2023-01-29T14:51:44.187Z,89.07
2023-01-29T14:57:00.148Z,89.01
2023-01-29T15:02:40.247Z,89.23
2023-01-29T15:07:55.293Z,89.39
2023-01-29T15:13:36.117Z,89.42
2023-01-29T15:18:44.195Z,89.29
2023-01-29T15:23:49.372Z,89.41
2023-01-29T15:29:04.152Z,89.50
2023-01-29T15:34:08.285Z,89.49
2023-01-29T15:39:25.059Z,89.43
2023-01-29T15:44:28.306Z,89.36
2023-01-29T15:49:36.497Z,89.32
2023-01-29T15:54:39.947Z,89.38
2023-01-29T15:59:45.927Z,89.50
2023-01-29T16:04:49.259Z,89.51
2023-01-29T16:09:54.113Z,89.50
2023-01-29T16:14:58.007Z,89.56
2023-01-29T16:20:08.387Z,89.50
2023-01-29T16:25:16.104Z,89.50
2023-01-29T16:30:20.218Z,89.46
2023-01-29T16:35:23.361Z,89.29
2023-01-29T16:40:33.394Z,89.24
2023-01-29T16:45:36.622Z,89.27
2023-01-29T16:50:53.985Z,89.39
2023-01-29T16:56:05.956Z,89.35
2023-01-29T17:01:11.660Z,89.44
2023-01-29T17:06:26.343Z,89.43
2023-01-29T17:11:41.815Z,89.36
2023-01-29T17:17:34.574Z,89.46
2023-01-29T17:22:37.785Z,89.57
2023-01-29T17:27:44.081Z,89.63
2023-01-29T17:32:47.667Z,89.79
2023-01-29T17:37:51.099Z,89.89
2023-01-29T17:42:54.099Z,90.14
2023-01-29T17:47:57.312Z,90.33
2023-01-29T17:53:00.407Z,90.43
2023-01-29T17:58:03.729Z,90.46
2023-01-29T18:03:06.935Z,90.46
2023-01-29T18:08:19.288Z,90.62
2023-01-29T18:13:22.572Z,90.64
2023-01-29T18:18:25.708Z,90.68
2023-01-29T18:23:31.746Z,90.82
2023-01-29T18:28:35.154Z,91.06
2023-01-29T18:33:38.268Z,91.10
2023-01-29T18:38:41.504Z,90.97
2023-01-29T18:43:44.790Z,90.96
2023-01-29T18:48:48.117Z,91.00
2023-01-29T18:53:53.259Z,91.03
2023-01-29T18:58:56.690Z,91.09
2023-01-29T19:04:00.609Z,91.19
2023-01-29T19:09:04.622Z,91.11
2023-01-29T19:14:07.720Z,91.12
2023-01-29T19:19:11.548Z,91.14
2023-01-29T19:24:15.589Z,91.12
2023-01-29T19:29:20.347Z,91.13
2023-01-29T19:34:24.154Z,91.11
2023-01-29T19:39:32.678Z,91.02
2023-01-29T19:44:35.889Z,90.93
2023-01-29T19:49:40.866Z,90.86
2023-01-29T19:54:46.573Z,90.85
2023-01-29T19:59:49.812Z,90.96
2023-01-29T20:04:53.222Z,91.04
2023-01-29T20:09:56.533Z,90.98
2023-01-29T20:14:59.740Z,91.06
2023-01-29T20:20:05.917Z,91.07
2023-01-29T20:25:09.966Z,91.17
2023-01-29T20:30:14.043Z,91.22
2023-01-29T20:35:17.418Z,91.36
2023-01-29T20:40:20.605Z,91.43
2023-01-29T20:45:23.909Z,91.46
2023-01-29T20:50:27.428Z,91.49
2023-01-29T20:55:31.976Z,91.54
2023-01-29T21:00:35.645Z,91.42
2023-01-29T21:05:39.011Z,91.38
2023-01-29T21:10:43.354Z,91.42
2023-01-29T21:15:47.157Z,91.40
2023-01-29T21:20:50.880Z,91.40
2023-01-29T21:25:54.129Z,91.28
2023-01-29T21:31:10.289Z,91.16
2023-01-29T21:36:13.522Z,91.03
2023-01-29T21:41:16.795Z,91.00
2023-01-29T21:46:20.053Z,90.89
2023-01-29T21:51:24.055Z,90.82
2023-01-29T21:56:27.284Z,90.75
2023-01-29T22:01:37.996Z,90.74
2023-01-29T22:06:42.790Z,90.74
2023-01-29T22:11:45.798Z,90.82
2023-01-29T22:16:49.056Z,90.90
2023-01-29T22:21:55.922Z,91.07
2023-01-29T22:26:59.002Z,91.04
2023-01-29T22:32:02.177Z,91.10
2023-01-29T22:37:05.625Z,91.04
2023-01-29T22:42:08.756Z,90.99
2023-01-29T22:47:12.560Z,90.92
2023-01-29T22:52:16.072Z,90.72
2023-01-29T22:57:20.105Z,90.68
2023-01-29T23:02:23.134Z,90.51
2023-01-29T23:07:26.722Z,90.39
2023-01-29T23:12:29.861Z,90.40
2023-01-29T23:17:33.750Z,90.35
2023-01-29T23:22:36.856Z,90.21
2023-01-29T23:27:40.275Z,90.10
2023-01-29T23:32:43.320Z,90.10
2023-01-29T23:37:46.490Z,90.03
2023-01-29T23:42:49.698Z,90.01
2023-01-29T23:47:52.717Z,90.03
2023-01-29T23:52:55.804Z,90.00
2023-01-29T23:57:59.011Z,90.00
